Time;durP1;ratioP1;P1;durP2;ratioP2;P2;SDS_P1;SDS_P2;PMS_P1;PMS_P2;Temp;Humidity;BMP_temperature;BMP_pressure;BME280_temperature;BME280_humidity;BME280_pressure;Samples;Min_cycle;Max_cycle;Signal;HPM_P1;HPM_P2
2023/06/20 00:00:11;;;;;;;10.27;6.57;;;;;;;20.90;71.28;101180.25;5092383;28;20052;-74
2023/06/20 00:02:36;;;;;;;9.55;5.97;;;;;;;20.96;70.47;101187.00;5088945;28;20123;-74
2023/06/20 00:05:03;;;;;;;9.13;5.97;;;;;;;20.96;70.28;101184.16;5094966;28;20491;-74
2023/06/20 00:07:29;;;;;;;11.27;6.15;;;;;;;20.84;71.19;101182.00;5092691;28;20032;-75
2023/06/20 00:09:54;;;;;;;8.70;6.22;;;;;;;20.79;71.73;101174.81;5082205;28;20035;-74
2023/06/20 00:12:20;;;;;;;13.30;6.20;;;;;;;20.77;71.97;101174.44;5094318;28;20054;-74
2023/06/20 00:14:45;;;;;;;11.75;6.22;;;;;;;20.86;71.70;101171.78;5076194;28;20016;-74
2023/06/20 00:17:10;;;;;;;10.13;6.45;;;;;;;20.99;70.09;101176.78;5072505;28;20654;-75
2023/06/20 00:19:36;;;;;;;9.82;6.72;;;;;;;20.82;72.40;101173.13;5079466;28;20562;-74
2023/06/20 00:22:03;;;;;;;11.98;6.70;;;;;;;20.78;72.81;101170.34;5098788;28;20422;-74
2023/06/20 00:24:32;;;;;;;11.90;7.28;;;;;;;20.75;73.45;101170.44;5097403;28;20024;-75
2023/06/20 00:26:58;;;;;;;10.15;6.30;;;;;;;20.71;73.63;101171.31;5086366;28;20039;-75
2023/06/20 00:29:24;;;;;;;11.13;6.80;;;;;;;20.86;72.81;101171.78;5093522;28;20475;-74
2023/06/20 00:31:49;;;;;;;10.15;7.05;;;;;;;20.82;73.91;101165.38;5086245;28;20032;-74
2023/06/20 00:34:15;;;;;;;12.13;6.82;;;;;;;20.86;73.40;101166.09;5093571;28;20038;-74
2023/06/20 00:36:41;;;;;;;12.43;7.38;;;;;;;20.78;74.81;101163.88;5065024;28;20032;-75
2023/06/20 00:39:07;;;;;;;14.05;7.00;;;;;;;20.74;73.89;101161.09;5089020;28;20401;-74
2023/06/20 00:41:33;;;;;;;10.98;6.65;;;;;;;20.70;74.83;101163.22;5092215;28;20023;-74
2023/06/20 00:44:02;;;;;;;9.93;6.20;;;;;;;20.79;74.72;101154.91;5089935;28;20043;-75
2023/06/20 00:46:31;;;;;;;10.27;6.40;;;;;;;20.79;74.26;101154.09;5088954;28;20503;-74
2023/06/20 00:48:58;;;;;;;10.05;6.60;;;;;;;20.67;75.65;101149.91;5089059;28;20028;-74
2023/06/20 00:51:28;;;;;;;10.98;6.93;;;;;;;20.69;77.28;101155.94;5082937;28;20431;-75
2023/06/20 00:53:55;;;;;;;11.70;7.32;;;;;;;20.64;75.91;101147.91;5093245;28;20028;-75
2023/06/20 00:56:21;;;;;;;10.48;6.85;;;;;;;20.75;74.34;101150.53;5076060;28;20106;-74
2023/06/20 00:58:46;;;;;;;12.68;7.50;;;;;;;20.65;78.36;101155.22;5097674;28;20467;-74
2023/06/20 01:01:12;;;;;;;11.45;6.25;;;;;;;20.74;74.39;101152.56;5074464;28;21320;-74
2023/06/20 01:03:38;;;;;;;11.05;6.43;;;;;;;20.74;75.71;101152.56;5088810;28;20039;-74
2023/06/20 01:06:22;;;;;;;9.95;6.38;;;;;;;20.62;76.52;101150.44;5091629;28;20085;-75
2023/06/20 01:09:05;;;;;;;10.07;6.50;;;;;;;20.70;74.90;101157.53;5094341;28;20031;-74
2023/06/20 01:11:50;;;;;;;9.88;6.85;;;;;;;20.74;75.88;101146.88;5100463;28;20429;-75
2023/06/20 01:14:25;;;;;;;9.77;6.25;;;;;;;20.68;75.55;101148.63;5091875;28;20123;-74
2023/06/20 01:16:59;;;;;;;12.82;6.95;;;;;;;20.37;77.22;101142.44;5090720;28;20038;-74
2023/06/20 01:19:55;;;;;;;10.38;6.93;;;;;;;20.50;78.65;101146.19;5088422;28;20084;-74
2023/06/20 01:23:00;;;;;;;8.68;6.47;;;;;;;20.46;80.11;101140.56;5075247;28;20217;-74
2023/06/20 01:25:54;;;;;;;12.98;7.38;;;;;;;20.30;81.34;101140.50;5098870;28;20380;-74
2023/06/20 01:28:34;;;;;;;11.25;7.28;;;;;;;20.37;80.90;101140.38;5092442;28;20440;-74
2023/06/20 01:31:10;;;;;;;13.70;8.10;;;;;;;20.45;78.40;101138.16;5089757;28;20039;-75
2023/06/20 01:33:47;;;;;;;10.27;6.85;;;;;;;20.38;80.19;101147.66;5079012;28;20043;-74
2023/06/20 01:36:15;;;;;;;11.15;7.60;;;;;;;20.28;81.44;101137.31;5096249;28;20036;-74
2023/06/20 01:38:44;;;;;;;11.88;7.40;;;;;;;20.30;79.15;101141.34;5096242;28;20142;-74
2023/06/20 01:41:13;;;;;;;11.25;7.55;;;;;;;20.22;79.79;101139.88;5098871;28;20035;-74
2023/06/20 01:43:39;;;;;;;11.32;6.90;;;;;;;20.34;78.27;101135.56;5092993;28;20030;-74
2023/06/20 01:46:07;;;;;;;15.13;8.73;;;;;;;20.39;78.60;101132.22;5093048;28;20027;-74
2023/06/20 01:48:34;;;;;;;13.05;8.07;;;;;;;20.22;83.27;101127.72;5089519;28;20043;-74
2023/06/20 01:51:00;;;;;;;14.25;8.55;;;;;;;20.10;81.40;101141.34;5086457;28;20093;-74
2023/06/20 01:53:27;;;;;;;12.73;8.02;;;;;;;20.28;79.70;101132.44;5097615;28;20047;-74
2023/06/20 01:55:55;;;;;;;10.55;6.78;;;;;;;20.45;77.78;101124.75;5097454;28;20545;-74
2023/06/20 01:58:22;;;;;;;13.27;8.00;;;;;;;20.20;81.00;101130.19;5081999;28;20042;-74
2023/06/20 02:00:49;;;;;;;13.35;7.72;;;;;;;20.27;79.85;101130.84;5080278;28;20035;-74
2023/06/20 02:03:16;;;;;;;11.82;7.97;;;;;;;20.35;81.53;101134.31;5093320;28;20035;-74
2023/06/20 02:05:43;;;;;;;12.38;8.45;;;;;;;20.30;80.04;101132.81;5077431;28;20092;-74
2023/06/20 02:08:10;;;;;;;11.82;7.68;;;;;;;20.40;78.61;101128.13;5096811;28;20027;-74
2023/06/20 02:10:36;;;;;;;13.63;8.15;;;;;;;20.42;82.55;101127.69;5094849;28;20555;-73
2023/06/20 02:13:02;;;;;;;12.52;8.43;;;;;;;20.17;82.81;101119.69;5091961;28;20032;-74
2023/06/20 02:15:29;;;;;;;11.90;7.70;;;;;;;20.16;83.76;101130.28;5086623;28;20530;-73
2023/06/20 02:17:55;;;;;;;11.80;7.78;;;;;;;20.29;79.52;101124.72;5072853;28;20023;-73
2023/06/20 02:20:20;;;;;;;12.52;9.05;;;;;;;20.03;85.97;101126.50;5077431;28;20362;-74
2023/06/20 02:22:47;;;;;;;11.63;7.75;;;;;;;20.03;81.60;101121.63;5095913;28;20487;-74
2023/06/20 02:25:25;;;;;;;13.00;8.07;;;;;;;20.19;80.82;101125.75;5098877;28;20044;-73
2023/06/20 02:27:53;;;;;;;17.63;9.10;;;;;;;20.15;83.08;101127.84;5093787;28;20040;-73
2023/06/20 02:30:23;;;;;;;10.68;7.68;;;;;;;20.14;85.31;101131.97;5087311;28;20100;-72
2023/06/20 02:32:49;;;;;;;16.42;9.90;;;;;;;20.16;81.36;101135.16;5071560;28;20028;-73
2023/06/20 02:35:16;;;;;;;12.80;8.32;;;;;;;20.23;83.24;101123.63;5094056;28;20101;-73
2023/06/20 02:37:43;;;;;;;11.35;7.97;;;;;;;19.94;85.43;101129.09;5095296;28;20035;-73
2023/06/20 02:40:09;;;;;;;14.27;8.73;;;;;;;20.07;84.19;101127.19;5080838;28;20629;-73
2023/06/20 02:42:35;;;;;;;14.98;9.80;;;;;;;19.96;85.84;101127.41;5093796;28;20035;-74
2023/06/20 02:45:01;;;;;;;9.55;7.35;;;;;;;20.24;79.72;101128.09;5097941;28;20027;-72
2023/06/20 02:47:49;;;;;;;13.45;9.82;;;;;;;20.25;82.30;101115.47;5090632;28;20547;-73
2023/06/20 02:50:22;;;;;;;15.73;9.18;;;;;;;20.08;84.34;101126.78;5092687;28;20035;-73
2023/06/20 02:52:52;;;;;;;13.52;9.50;;;;;;;20.14;82.52;101117.75;5098260;28;20023;-73
2023/06/20 02:55:27;;;;;;;16.60;8.55;;;;;;;20.14;81.96;101118.53;5087179;28;20391;-73
2023/06/20 02:57:56;;;;;;;14.25;8.18;;;;;;;20.25;81.86;101115.47;5097810;28;20054;-73
2023/06/20 03:00:23;;;;;;;12.52;7.95;;;;;;;20.22;83.52;101110.66;5088399;28;20151;-73
2023/06/20 03:03:09;;;;;;;13.75;8.88;;;;;;;20.34;79.22;101115.66;5088505;28;20024;-73
2023/06/20 03:05:42;;;;;;;12.27;8.18;;;;;;;20.27;81.47;101110.13;5089675;28;20507;-73
2023/06/20 03:08:08;;;;;;;;;;;;;;;20.18;83.62;101110.75;5090682;28;20405;-73
2023/06/20 03:10:34;;;;;;;12.23;8.15;;;;;;;20.21;80.41;101109.06;5089443;28;19951;-73
2023/06/20 03:13:01;;;;;;;13.90;9.13;;;;;;;20.03;82.16;101104.56;5086262;28;20419;-73
2023/06/20 03:15:27;;;;;;;13.43;8.98;;;;;;;20.11;80.72;101099.50;5087694;28;20119;-73
2023/06/20 03:17:52;;;;;;;12.40;8.98;;;;;;;20.18;80.91;101104.25;5089483;28;20024;-73
2023/06/20 03:20:18;;;;;;;19.90;10.32;;;;;;;20.00;85.51;101094.06;5097666;28;20058;-73
2023/06/20 03:22:43;;;;;;;14.98;9.85;;;;;;;20.00;85.07;101094.06;5087135;28;20039;-73
2023/06/20 03:25:09;;;;;;;16.48;9.90;;;;;;;19.77;83.48;101100.63;5091146;28;20035;-73
2023/06/20 03:27:34;;;;;;;17.55;10.30;;;;;;;19.59;86.50;101100.97;5092859;28;20028;-73
2023/06/20 03:30:03;;;;;;;17.58;9.07;;;;;;;19.72;84.21;101106.03;5096353;28;20028;-73
2023/06/20 03:32:29;;;;;;;14.82;9.10;;;;;;;19.87;84.18;101104.50;5094390;28;20112;-73
2023/06/20 03:34:54;;;;;;;14.43;9.75;;;;;;;19.82;84.35;101105.00;5089119;28;20019;-73
2023/06/20 03:37:20;;;;;;;12.60;9.70;;;;;;;19.90;83.59;101097.91;5090233;28;20118;-73
2023/06/20 03:39:45;;;;;;;16.70;10.35;;;;;;;19.86;83.96;101100.06;5094515;28;20089;-73
2023/06/20 03:42:10;;;;;;;14.75;10.07;;;;;;;19.58;87.10;101096.50;5084081;28;20055;-73
2023/06/20 03:44:36;;;;;;;14.68;9.98;;;;;;;19.61;85.90;101107.00;5102735;28;20031;-73
2023/06/20 03:47:01;;;;;;;16.50;9.27;;;;;;;19.50;86.38;101100.72;5092363;28;20056;-73
2023/06/20 03:49:26;;;;;;;12.40;8.98;;;;;;;19.82;84.76;101110.69;5093890;28;20477;-73
2023/06/20 03:51:52;;;;;;;13.45;8.73;;;;;;;19.77;84.38;101105.50;5086427;28;20723;-73
2023/06/20 03:54:17;;;;;;;15.40;8.88;;;;;;;19.96;84.02;101099.00;5075447;28;20514;-73
2023/06/20 03:56:42;;;;;;;15.88;9.98;;;;;;;19.85;85.29;101095.59;5091876;28;20024;-73
2023/06/20 03:59:08;;;;;;;19.33;13.05;;;;;;;19.71;87.50;101099.53;5099803;28;20054;-73
2023/06/20 04:01:33;;;;;;;15.57;10.00;;;;;;;19.79;85.20;101091.66;5074430;28;20134;-73
2023/06/20 04:03:58;;;;;;;15.07;9.68;;;;;;;19.77;87.55;101088.47;5094105;28;20072;-72
2023/06/20 04:06:30;;;;;;;17.25;9.82;;;;;;;19.82;86.59;101094.44;5086998;28;20035;-72
2023/06/20 04:08:55;;;;;;;15.70;10.73;;;;;;;19.83;86.84;101092.41;5093973;28;20088;-73
2023/06/20 04:11:20;;;;;;;18.27;9.68;;;;;;;19.84;85.58;101096.84;5100597;28;20623;-73
2023/06/20 04:13:46;;;;;;;19.02;11.43;;;;;;;19.67;86.06;101081.75;5087079;28;20019;-73
2023/06/20 04:16:11;;;;;;;19.00;10.43;;;;;;;19.73;88.86;101082.84;5074206;28;20382;-73
2023/06/20 04:18:36;;;;;;;13.48;8.55;;;;;;;19.95;85.83;101085.28;5085442;28;20495;-73
2023/06/20 04:21:02;;;;;;;16.15;10.63;;;;;;;19.58;86.97;101085.13;5092271;28;20430;-73
2023/06/20 04:23:27;;;;;;;17.08;10.93;;;;;;;19.59;90.66;101081.06;5097016;28;20039;-73
2023/06/20 04:25:53;;;;;;;17.55;10.88;;;;;;;19.36;93.06;101081.13;5097539;28;20080;-73
2023/06/20 04:28:18;;;;;;;19.42;10.60;;;;;;;19.49;89.06;101076.41;5091702;28;20337;-73
2023/06/20 04:30:44;;;;;;;17.33;10.98;;;;;;;19.72;89.70;101072.75;5092798;28;20027;-72
2023/06/20 04:33:09;;;;;;;21.25;11.50;;;;;;;19.69;91.54;101068.72;5092208;28;20089;-73
2023/06/20 04:35:34;;;;;;;18.50;12.45;;;;;;;19.70;90.82;101070.31;5094075;28;20028;-74
2023/06/20 04:38:01;;;;;;;17.25;11.52;;;;;;;19.74;89.78;101064.59;5093926;28;20158;-73
2023/06/20 04:40:27;;;;;;;18.80;12.05;;;;;;;19.55;92.69;101060.47;5091500;28;20084;-73
2023/06/20 04:42:52;;;;;;;17.83;11.02;;;;;;;19.54;93.08;101055.22;5097400;28;20059;-73
2023/06/20 04:45:17;;;;;;;17.35;11.13;;;;;;;19.58;92.05;101056.75;5093699;28;20428;-73
2023/06/20 04:47:43;;;;;;;17.55;12.07;;;;;;;19.74;87.48;101053.22;5091100;28;20056;-73
2023/06/20 04:50:09;;;;;;;15.88;11.82;;;;;;;19.76;88.28;101055.63;5092380;28;20097;-73
2023/06/20 04:52:34;;;;;;;19.48;13.52;;;;;;;19.64;91.93;101049.31;5094966;28;20499;-73
2023/06/20 04:55:02;;;;;;;19.80;12.57;;;;;;;19.68;91.38;101055.72;5093384;28;20128;-73
2023/06/20 04:57:29;;;;;;;17.88;11.95;;;;;;;19.50;90.94;101056.09;5097847;28;20028;-73
2023/06/20 04:59:55;;;;;;;21.95;13.73;;;;;;;19.58;91.05;101056.75;5089579;28;20028;-73
2023/06/20 05:02:20;;;;;;;20.38;11.20;;;;;;;19.69;91.58;101056.53;5096359;28;20097;-73
2023/06/20 05:04:45;;;;;;;23.23;14.35;;;;;;;19.68;94.59;101058.56;5096114;28;20495;-73
2023/06/20 05:07:11;;;;;;;21.92;11.70;;;;;;;19.85;92.81;101059.47;5101285;28;20024;-73
2023/06/20 05:09:36;;;;;;;20.98;14.52;;;;;;;19.59;92.67;101066.88;5094871;28;20535;-73
2023/06/20 05:12:01;;;;;;;19.63;12.98;;;;;;;19.77;90.35;101063.69;5090863;28;20171;-73
2023/06/20 05:14:27;;;;;;;18.63;12.45;;;;;;;19.88;90.97;101066.31;5075749;28;20040;-73
2023/06/20 05:16:52;;;;;;;18.83;13.32;;;;;;;19.97;92.75;101066.53;5083550;28;20028;-74
2023/06/20 05:19:17;;;;;;;19.85;13.07;;;;;;;19.78;94.91;101071.00;5092840;28;20046;-74
2023/06/20 05:21:43;;;;;;;16.65;11.10;;;;;;;20.04;87.52;101077.75;5095437;28;20024;-73
2023/06/20 05:24:08;;;;;;;17.17;11.27;;;;;;;20.13;89.89;101067.81;5097136;28;20024;-73
2023/06/20 05:26:33;;;;;;;21.20;14.27;;;;;;;19.91;92.65;101073.97;5067571;28;20651;-73
2023/06/20 05:28:59;;;;;;;17.60;13.73;;;;;;;19.92;92.91;101064.19;5074271;28;20514;-73
2023/06/20 05:31:24;;;;;;;17.45;11.43;;;;;;;20.12;91.71;101069.88;5066970;28;20084;-73
2023/06/20 05:33:50;;;;;;;21.05;12.98;;;;;;;20.02;94.97;101080.22;5072047;28;20403;-75
2023/06/20 05:36:15;;;;;;;24.58;14.32;;;;;;;20.04;94.62;101066.38;5070405;28;20059;-75
2023/06/20 05:38:41;;;;;;;18.88;13.57;;;;;;;20.25;91.77;101065.09;5073503;28;20059;-75
2023/06/20 05:41:06;;;;;;;14.93;11.95;;;;;;;20.36;89.62;101075.41;5073105;28;20068;-74
2023/06/20 05:43:33;;;;;;;18.23;12.85;;;;;;;20.33;90.68;101071.44;5076400;28;20143;-75
2023/06/20 05:45:58;;;;;;;16.42;12.65;;;;;;;20.43;92.95;101073.22;5065244;28;20028;-78
2023/06/20 05:48:25;;;;;;;18.13;12.70;;;;;;;20.17;95.57;101062.84;5074403;28;20032;-78
2023/06/20 05:50:51;;;;;;;20.85;12.82;;;;;;;20.31;91.73;101062.53;5075455;28;20366;-78
2023/06/20 05:53:17;;;;;;;19.85;12.45;;;;;;;20.32;93.50;101058.44;5078646;28;20031;-78
2023/06/20 05:55:43;;;;;;;20.45;13.55;;;;;;;20.33;93.95;101060.06;5073608;28;20082;-78
2023/06/20 05:58:08;;;;;;;21.30;14.07;;;;;;;20.32;94.19;101066.97;5073705;28;20106;-79
2023/06/20 06:00:34;;;;;;;15.85;10.48;;;;;;;22.07;83.56;101070.13;5073068;28;21898;-80
2023/06/20 06:02:59;;;;;;;17.02;12.40;;;;;;;21.79;83.47;101065.28;5071690;28;20028;-79
2023/06/20 06:05:24;;;;;;;19.13;11.57;;;;;;;21.63;85.10;101064.09;5070992;28;20111;-80
2023/06/20 06:07:50;;;;;;;15.88;10.43;;;;;;;21.52;85.95;101074.97;5075004;28;20349;-78
2023/06/20 06:10:16;;;;;;;17.17;12.00;;;;;;;22.03;82.07;101069.44;5067620;28;20215;-75
2023/06/20 06:12:42;;;;;;;19.63;12.98;;;;;;;21.21;87.06;101066.03;5071232;28;20036;-75
2023/06/20 06:15:08;;;;;;;13.38;10.32;;;;;;;21.53;87.54;101068.03;5068668;28;20073;-75
2023/06/20 06:17:33;;;;;;;13.63;9.50;;;;;;;22.26;82.58;101067.56;5074130;28;20028;-75
2023/06/20 06:19:59;;;;;;;20.83;12.82;;;;;;;21.70;85.37;101058.19;5072316;28;20032;-76
2023/06/20 06:22:24;;;;;;;16.08;11.07;;;;;;;22.57;82.65;101067.00;5067935;28;20036;-75
2023/06/20 06:24:50;;;;;;;13.75;10.20;;;;;;;22.54;81.70;101071.56;5073938;28;20079;-75
2023/06/20 06:27:17;;;;;;;16.17;10.30;;;;;;;22.68;76.71;101070.28;5102597;28;20447;-75
2023/06/20 06:29:43;;;;;;;15.45;10.50;;;;;;;22.95;79.85;101069.78;5090041;28;20039;-75
2023/06/20 06:32:09;;;;;;;14.43;11.25;;;;;;;22.23;81.54;101066.41;5093339;28;20102;-75
2023/06/20 06:38:14;;;;;;;16.98;10.80;;;;;;;22.39;75.79;101062.66;5092668;28;20094;-75
2023/06/20 06:40:42;;;;;;;17.08;11.82;;;;;;;21.82;85.87;101056.63;5077520;28;20483;-75
2023/06/20 06:43:07;;;;;;;15.20;9.85;;;;;;;22.43;82.59;101048.28;5085547;28;20027;-75
2023/06/20 06:45:33;;;;;;;18.10;10.82;;;;;;;22.62;83.22;101055.00;5087190;28;20557;-75
2023/06/20 06:47:58;;;;;;;16.90;11.25;;;;;;;22.20;82.67;101040.81;5091808;28;20153;-75
2023/06/20 06:50:23;;;;;;;15.18;11.05;;;;;;;22.56;81.72;101048.28;5084862;28;20135;-76
2023/06/20 06:52:49;;;;;;;17.83;11.02;;;;;;;22.24;81.99;101041.53;5095758;28;20110;-76
2023/06/20 06:55:14;;;;;;;13.82;10.20;;;;;;;23.44;79.90;101042.81;5093247;28;20089;-75
2023/06/20 06:57:39;;;;;;;12.52;9.88;;;;;;;23.72;75.91;101041.00;5096187;28;20066;-75
2023/06/20 07:00:10;;;;;;;11.57;8.88;;;;;;;23.89;76.38;101050.19;5073219;28;20760;-76
2023/06/20 07:02:35;;;;;;;14.15;9.90;;;;;;;23.52;77.46;101049.88;5091400;28;20031;-75
2023/06/20 07:05:02;;;;;;;11.75;9.30;;;;;;;23.82;76.23;101044.72;5097001;28;20051;-76
2023/06/20 07:07:27;;;;;;;13.63;10.30;;;;;;;23.89;74.85;101044.47;5091512;28;20059;-75
2023/06/20 07:09:52;;;;;;;14.48;10.23;;;;;;;23.29;77.32;101034.78;5091382;28;20430;-76
2023/06/20 07:12:18;;;;;;;13.73;9.35;;;;;;;22.74;80.30;101043.56;5095939;28;20030;-75
2023/06/20 07:14:43;;;;;;;15.05;10.95;;;;;;;22.60;80.01;101037.53;5086910;28;20285;-75
2023/06/20 07:17:08;;;;;;;13.25;9.05;;;;;;;23.73;74.29;101037.66;5084732;28;20081;-75
2023/06/20 07:19:34;;;;;;;14.88;9.45;;;;;;;23.80;75.33;101050.09;5079113;28;20089;-75
2023/06/20 07:21:59;;;;;;;9.98;7.97;;;;;;;23.51;75.86;101059.72;5091792;28;20236;-76
2023/06/20 07:24:24;;;;;;;20.98;13.50;;;;;;;23.77;76.74;101053.91;5092016;28;20077;-75
2023/06/20 10:04:30;;;;;;;7.53;6.38;;;;;;;27.73;59.44;100969.25;5073992;28;21658;-75
2023/06/20 10:06:55;;;;;;;6.07;5.22;;;;;;;28.11;56.72;100970.44;5073306;28;20044;-75
2023/06/20 10:09:21;;;;;;;6.32;5.45;;;;;;;28.34;56.63;100966.59;5067088;28;20025;-75
2023/06/20 10:11:47;;;;;;;6.30;5.57;;;;;;;28.21;57.44;100974.78;5075351;28;20395;-75
2023/06/20 10:14:13;;;;;;;8.15;5.93;;;;;;;28.51;56.01;100969.75;5075087;28;20022;-75
2023/06/20 10:16:39;;;;;;;8.05;5.82;;;;;;;28.08;55.83;100972.25;5076229;28;20024;-75
2023/06/20 10:19:18;;;;;;;7.60;5.72;;;;;;;28.47;55.50;100968.34;5077232;28;20081;-75
2023/06/20 10:21:58;;;;;;;8.55;5.97;;;;;;;28.71;52.79;100965.31;5080653;28;20063;-75
2023/06/20 10:24:25;;;;;;;6.55;5.50;;;;;;;29.05;52.06;100965.72;5074944;28;20340;-74
2023/06/20 10:26:56;;;;;;;6.38;4.97;;;;;;;29.05;50.77;100965.72;5093604;28;20294;-76
2023/06/20 10:29:22;;;;;;;5.57;4.43;;;;;;;29.25;49.94;100954.19;5079899;28;20774;-75
2023/06/20 10:31:54;;;;;;;7.75;5.97;;;;;;;28.82;51.10;100959.69;5093919;28;20111;-75
2023/06/20 10:34:34;;;;;;;7.60;5.97;;;;;;;28.26;53.85;100956.03;5097070;28;20073;-75
2023/06/20 10:37:14;;;;;;;6.45;5.68;;;;;;;28.89;52.02;100956.38;5102187;28;20031;-75
2023/06/20 10:39:56;;;;;;;5.78;4.72;;;;;;;29.24;51.71;100955.50;5097391;28;20050;-75
2023/06/20 10:42:42;;;;;;;6.10;4.72;;;;;;;29.42;51.24;100953.59;5094916;28;20387;-75
2023/06/20 10:45:29;;;;;;;6.18;4.97;;;;;;;29.86;50.11;100958.22;5097344;28;20051;-75
2023/06/20 10:47:56;;;;;;;6.40;5.38;;;;;;;29.35;52.51;100958.50;5094991;28;20027;-75
2023/06/20 10:50:22;;;;;;;9.52;6.53;;;;;;;28.89;52.94;100953.50;5096360;28;20086;-75
2023/06/20 10:52:48;;;;;;;9.90;6.07;;;;;;;28.63;54.11;100955.50;5086504;28;20031;-76
2023/06/20 10:55:14;;;;;;;7.70;5.63;;;;;;;28.68;53.98;100949.03;5102473;28;20028;-75
2023/06/20 10:57:44;;;;;;;8.63;5.22;;;;;;;28.26;60.54;100941.63;5098832;28;20039;-75
2023/06/20 11:00:14;;;;;;;6.53;4.82;;;;;;;28.12;56.00;100944.03;5082996;28;20054;-75
2023/06/20 11:02:41;;;;;;;8.70;5.43;;;;;;;28.94;57.03;100938.34;5098745;28;20023;-76
2023/06/20 11:05:09;;;;;;;10.88;5.72;;;;;;;28.60;56.33;100942.13;5096053;28;20044;-75
2023/06/20 11:07:35;;;;;;;7.80;5.65;;;;;;;28.54;55.91;100939.16;5103513;28;20380;-75
2023/06/20 11:10:12;;;;;;;6.22;5.22;;;;;;;28.50;55.32;100939.38;5094256;28;20168;-76
2023/06/20 11:12:44;;;;;;;7.28;5.40;;;;;;;28.70;55.80;100934.94;5098338;28;20031;-74
2023/06/20 11:15:27;;;;;;;5.88;4.93;;;;;;;29.30;54.30;100923.84;5094811;28;20085;-74
2023/06/20 11:17:53;;;;;;;8.57;6.25;;;;;;;28.81;55.94;100931.41;5091877;28;20020;-76
2023/06/20 11:20:21;;;;;;;6.80;5.85;;;;;;;28.74;54.81;100935.50;5099618;28;20028;-76
2023/06/20 11:22:48;;;;;;;6.53;4.97;;;;;;;28.64;55.46;100919.66;5100606;28;20433;-77
2023/06/20 11:25:24;;;;;;;8.15;5.38;;;;;;;28.43;56.84;100931.13;5100554;28;20059;-75
2023/06/20 11:27:49;;;;;;;15.63;6.57;;;;;;;28.60;58.98;100917.00;5092848;28;20114;-75
2023/06/20 11:30:15;;;;;;;6.63;4.93;;;;;;;28.38;58.15;100926.88;5098648;28;20037;-76
2023/06/20 11:32:41;;;;;;;6.32;5.80;;;;;;;28.14;60.29;100917.63;5099895;28;20375;-75
2023/06/20 11:35:08;;;;;;;11.27;5.80;;;;;;;28.32;57.71;100919.47;5099755;28;20071;-76
2023/06/20 11:37:34;;;;;;;7.03;5.88;;;;;;;28.09;57.26;100921.22;5095165;28;20032;-76
2023/06/20 11:39:59;;;;;;;7.35;6.10;;;;;;;28.86;55.02;100916.25;5099060;28;20058;-77
2023/06/20 11:42:31;;;;;;;7.28;5.57;;;;;;;28.61;55.09;100912.84;5100315;28;20111;-77
2023/06/20 11:45:10;;;;;;;6.78;5.65;;;;;;;28.65;55.78;100912.59;5094644;28;20521;-77
2023/06/20 11:47:35;;;;;;;5.75;5.15;;;;;;;29.25;54.75;100919.59;5081304;28;20028;-77
2023/06/20 11:50:00;;;;;;;6.65;5.25;;;;;;;29.44;51.61;100913.50;5100481;28;20096;-77
2023/06/20 11:52:32;;;;;;;7.28;6.07;;;;;;;28.77;54.32;100908.56;5097773;28;20480;-76
2023/06/20 11:54:58;;;;;;;5.28;4.78;;;;;;;28.76;53.80;100910.66;5094241;28;20161;-76
2023/06/20 11:57:26;;;;;;;5.88;5.20;;;;;;;29.30;55.77;100910.22;5095651;28;20036;-77
2023/06/20 11:59:55;;;;;;;6.30;5.05;;;;;;;30.22;50.93;100918.31;5098459;28;20379;-76
2023/06/20 12:02:24;;;;;;;5.10;4.60;;;;;;;29.59;52.83;100911.28;5092087;28;20039;-79
2023/06/20 12:15:52;;;;;;;6.18;4.82;;;;;;;29.78;51.64;100923.25;5073944;28;20047;-76
2023/06/20 12:18:17;;;;;;;5.82;4.60;;;;;;;29.47;52.49;100915.34;5093094;28;20027;-77
2023/06/20 12:20:43;;;;;;;5.28;4.70;;;;;;;29.12;53.03;100904.81;5074787;28;20023;-77
2023/06/20 12:23:08;;;;;;;7.57;5.85;;;;;;;29.36;52.56;100908.16;5089165;28;20043;-77
2023/06/20 12:25:34;;;;;;;5.32;4.57;;;;;;;29.88;50.40;100909.44;5091646;28;20055;-77
2023/06/20 12:28:00;;;;;;;6.00;5.38;;;;;;;30.42;49.99;100902.97;5099329;28;20085;-76
2023/06/20 12:30:26;;;;;;;5.45;4.95;;;;;;;30.20;49.74;100913.84;5092115;28;20081;-77
2023/06/20 12:32:51;;;;;;;7.35;5.30;;;;;;;29.51;51.13;100910.16;5092819;28;20491;-76
2023/06/20 12:35:16;;;;;;;5.20;4.70;;;;;;;29.48;51.25;100908.28;5098966;28;20030;-77
2023/06/20 12:37:42;;;;;;;7.53;5.65;;;;;;;29.41;51.65;100898.00;5093339;28;20032;-77
2023/06/20 12:40:09;;;;;;;6.22;5.28;;;;;;;29.46;51.33;100902.25;5097630;28;20099;-77
2023/06/20 12:42:36;;;;;;;6.93;6.07;;;;;;;29.68;51.46;100899.53;5096825;28;20483;-77
2023/06/20 12:45:01;;;;;;;6.28;5.55;;;;;;;29.84;51.13;100898.13;5070348;28;20095;-77
2023/06/20 12:47:27;;;;;;;6.38;5.60;;;;;;;30.36;50.62;100892.19;5087942;28;20047;-77
2023/06/20 12:49:52;;;;;;;7.95;6.13;;;;;;;30.41;49.12;100889.84;5097882;28;20069;-76
2023/06/20 12:52:18;;;;;;;6.75;6.07;;;;;;;30.63;50.51;100892.03;5097120;28;20038;-77
2023/06/20 12:54:43;;;;;;;7.95;5.85;;;;;;;31.05;49.89;100881.69;5094491;28;20165;-76
2023/06/20 12:57:08;;;;;;;7.13;6.45;;;;;;;30.84;47.27;100884.75;5103962;28;20258;-77
2023/06/20 12:59:34;;;;;;;7.57;6.88;;;;;;;31.74;45.36;100884.91;5079468;28;20041;-77
2023/06/20 13:01:59;;;;;;;7.20;6.45;;;;;;;31.06;47.50;100889.06;5101237;28;20043;-77
2023/06/20 13:04:25;;;;;;;8.52;6.45;;;;;;;32.03;44.54;100876.22;5093909;28;20028;-77
2023/06/20 13:06:51;;;;;;;6.90;5.85;;;;;;;31.94;46.09;100868.56;5096834;28;20043;-77
2023/06/20 13:09:17;;;;;;;6.47;5.88;;;;;;;32.16;44.09;100871.44;5102120;28;20403;-77
2023/06/20 13:11:43;;;;;;;7.57;5.85;;;;;;;31.80;43.73;100858.84;5102997;28;20027;-77
2023/06/20 13:14:08;;;;;;;7.03;6.18;;;;;;;30.84;46.22;100849.28;5098094;28;20024;-77
2023/06/20 13:16:34;;;;;;;7.20;6.15;;;;;;;31.71;44.99;100851.25;5097609;28;20035;-76
2023/06/20 13:19:01;;;;;;;7.85;6.43;;;;;;;32.10;43.94;100846.72;5097994;28;20046;-78
2023/06/20 13:21:29;;;;;;;6.70;5.97;;;;;;;32.53;42.97;100849.16;5095697;28;20031;-77
2023/06/20 13:23:54;;;;;;;7.97;7.22;;;;;;;32.24;44.86;100839.81;5098170;28;20069;-77
2023/06/20 13:26:20;;;;;;;7.18;6.47;;;;;;;32.68;42.11;100834.38;5081283;28;20146;-77
2023/06/20 13:28:46;;;;;;;8.13;7.43;;;;;;;32.64;41.44;100825.16;5086797;28;20047;-77
2023/06/20 13:31:11;;;;;;;6.45;5.85;;;;;;;32.85;41.20;100828.47;5100037;28;20020;-77
2023/06/20 13:33:37;;;;;;;6.38;5.75;;;;;;;31.64;43.59;100828.63;5101598;28;20486;-77
2023/06/20 13:36:03;;;;;;;7.53;6.82;;;;;;;31.11;45.24;100827.56;5081057;28;20027;-76
2023/06/20 13:38:28;;;;;;;7.05;6.40;;;;;;;31.76;43.41;100824.38;5097879;28;20031;-77
2023/06/20 13:40:53;;;;;;;7.40;6.70;;;;;;;31.94;45.76;100825.94;5074718;28;20036;-76
2023/06/20 13:43:19;;;;;;;8.38;7.57;;;;;;;32.18;41.84;100816.66;5098604;28;20023;-77
2023/06/20 13:45:44;;;;;;;6.82;5.72;;;;;;;32.29;41.61;100812.16;5084927;28;20030;-75
2023/06/20 13:48:09;;;;;;;6.95;6.35;;;;;;;31.27;45.30;100800.75;5092601;28;20035;-77
2023/06/20 13:50:37;;;;;;;7.30;6.60;;;;;;;31.17;46.70;100811.00;5097866;28;20027;-77
2023/06/20 13:53:04;;;;;;;6.45;5.85;;;;;;;30.85;45.81;100799.66;5097638;28;20643;-78
2023/06/20 13:55:31;;;;;;;7.45;6.75;;;;;;;31.40;46.72;100811.78;5095517;28;20028;-78
2023/06/20 13:57:57;;;;;;;7.38;6.68;;;;;;;32.23;43.34;100814.28;5094615;28;20035;-78
2023/06/20 14:00:22;;;;;;;7.55;6.85;;;;;;;32.26;42.27;100813.22;5094908;28;20039;-77
2023/06/20 14:02:48;;;;;;;6.70;6.10;;;;;;;32.06;43.91;100808.56;5086909;28;20032;-77
2023/06/20 14:05:13;;;;;;;6.97;6.38;;;;;;;32.36;42.22;100821.09;5076882;28;20038;-77
2023/06/20 14:07:39;;;;;;;6.75;5.78;;;;;;;32.36;42.74;100797.09;5092374;28;20031;-77
2023/06/20 14:10:05;;;;;;;6.43;5.78;;;;;;;32.41;43.06;100802.88;5098674;28;20043;-78
2023/06/20 14:12:30;;;;;;;7.50;6.50;;;;;;;32.27;42.29;100806.09;5088543;28;20449;-77